Time,TemperatureF,DewpointF,PressureIn,WindDirection,WindDirectionDegrees,WindSpeedMPH,WindSpeedGustMPH,Humidity,HourlyPrecipIn,Conditions,Clouds,dailyrainin,SoftwareType,DateUTC
2013-03-27 00:00:00,27.6,19.1,30.26,West,281,0.0,0.0,70,0.00,,OVC060,0.00,VWS V14.01,2013-03-27 05:00:00,
2013-03-27 00:05:00,27.6,19.1,30.26,West,281,0.0,0.0,70,0.00,,OVC060,0.00,VWS V14.01,2013-03-27 05:05:00,
2013-03-27 00:10:00,27.6,19.1,30.26,West,281,0.0,0.0,70,0.00,,OVC060,0.00,VWS V14.01,2013-03-27 05:10:00,
2013-03-27 00:15:00,27.6,19.1,30.26,WNW,283,0.0,0.0,70,0.00,,OVC060,0.00,VWS V14.01,2013-03-27 05:15:00,
2013-03-27 00:20:00,27.8,19.0,30.26,WNW,288,0.0,4.0,69,0.00,,OVC060,0.00,VWS V14.01,2013-03-27 05:20:00,
2013-03-27 00:25:00,27.8,19.0,30.26,WNW,288,0.0,0.0,69,0.00,,OVC060,0.00,VWS V14.01,2013-03-27 05:25:00,
2013-03-27 00:30:00,27.8,19.0,30.26,WNW,288,0.0,0.0,69,0.00,,OVC060,0.00,VWS V14.01,2013-03-27 05:30:00,
2013-03-27 00:35:00,27.8,19.0,30.26,WNW,288,0.0,0.0,69,0.00,,OVC060,0.00,VWS V14.01,2013-03-27 05:35:00,
2013-03-27 00:40:00,27.8,19.0,30.26,WNW,288,0.0,0.0,69,0.00,,OVC060,0.00,VWS V14.01,2013-03-27 05:40:00,
2013-03-27 00:45:00,27.6,18.8,30.26,WNW,288,0.0,0.0,69,0.00,,OVC060,0.00,VWS V14.01,2013-03-27 05:45:00,
2013-03-27 00:50:00,27.6,18.8,30.26,WNW,288,0.0,0.0,69,0.00,,OVC060,0.00,VWS V14.01,2013-03-27 05:50:00,
2013-03-27 00:55:00,27.6,18.8,30.26,WNW,288,0.0,0.0,69,0.00,,OVC060,0.00,VWS V14.01,2013-03-27 05:55:00,
2013-03-27 01:00:00,27.6,18.8,30.27,WNW,288,0.0,0.0,69,0.00,,OVC060,0.00,VWS V14.01,2013-03-27 06:00:00,
2013-03-27 01:05:00,27.6,19.1,30.27,WNW,288,0.0,0.0,70,0.00,,OVC060,0.00,VWS V14.01,2013-03-27 06:05:00,
2013-03-27 01:10:00,27.6,19.1,30.27,WNW,288,0.0,0.0,70,0.00,,OVC060,0.00,VWS V14.01,2013-03-27 06:10:00,
2013-03-27 01:15:00,27.6,19.1,30.27,WNW,288,0.0,0.0,70,0.00,,OVC060,0.00,VWS V14.01,2013-03-27 06:15:00,
2013-03-27 01:20:00,27.6,19.1,30.27,WNW,288,0.0,0.0,70,0.00,,OVC060,0.00,VWS V14.01,2013-03-27 06:20:00,
2013-03-27 01:25:00,27.6,19.1,30.27,WNW,288,0.0,0.0,70,0.00,,OVC060,0.00,VWS V14.01,2013-03-27 06:25:00,
2013-03-27 01:30:00,27.6,19.1,30.27,WNW,288,0.0,0.0,70,0.00,,OVC060,0.00,VWS V14.01,2013-03-27 06:30:00,
2013-03-27 01:35:00,27.6,19.1,30.27,WNW,288,0.0,0.0,70,0.00,,OVC060,0.00,VWS V14.01,2013-03-27 06:35:00,
2013-03-27 01:40:00,27.6,19.1,30.27,WNW,288,0.0,0.0,70,0.00,,OVC060,0.00,VWS V14.01,2013-03-27 06:40:00,
2013-03-27 01:45:00,27.6,19.1,30.26,WNW,288,0.0,0.0,70,0.00,,OVC060,0.00,VWS V14.01,2013-03-27 06:45:00,
2013-03-27 01:50:00,27.6,19.1,30.26,WNW,288,0.0,0.0,70,0.00,,OVC060,0.00,VWS V14.01,2013-03-27 06:50:00,
2013-03-27 01:55:00,27.6,19.1,30.26,WNW,288,0.0,0.0,70,0.00,,OVC060,0.00,VWS V14.01,2013-03-27 06:55:00,
2013-03-27 02:00:00,27.6,19.1,30.27,WNW,288,0.0,0.0,70,0.00,,OVC060,0.00,VWS V14.01,2013-03-27 07:00:00,
2013-03-27 02:05:00,27.6,19.1,30.27,WNW,288,0.0,0.0,70,0.00,,OVC060,0.00,VWS V14.01,2013-03-27 07:05:00,
2013-03-27 02:10:00,27.6,19.1,30.27,WNW,288,0.0,0.0,70,0.00,,OVC060,0.00,VWS V14.01,2013-03-27 07:10:00,
2013-03-27 02:15:00,27.6,19.1,30.27,WNW,288,0.0,0.0,70,0.00,,OVC060,0.00,VWS V14.01,2013-03-27 07:15:00,
2013-03-27 02:20:00,27.6,19.1,30.27,WNW,288,0.0,0.0,70,0.00,,OVC060,0.00,VWS V14.01,2013-03-27 07:20:00,
2013-03-27 02:25:00,27.5,19.0,30.27,WNW,288,0.0,0.0,70,0.00,,OVC060,0.00,VWS V14.01,2013-03-27 07:25:00,
2013-03-27 02:30:00,27.5,19.0,30.26,WNW,288,0.0,0.0,70,0.00,,OVC060,0.00,VWS V14.01,2013-03-27 07:30:00,
2013-03-27 02:35:00,27.5,19.0,30.26,WNW,288,0.0,0.0,70,0.00,,OVC060,0.00,VWS V14.01,2013-03-27 07:35:00,
2013-03-27 02:40:00,27.5,18.7,30.26,WNW,288,0.0,3.0,69,0.00,,OVC060,0.00,VWS V14.01,2013-03-27 07:40:00,
2013-03-27 02:45:00,27.5,18.7,30.26,WNW,288,0.0,0.0,69,0.00,,OVC060,0.00,VWS V14.01,2013-03-27 07:45:00,
2013-03-27 02:50:00,27.5,18.3,30.26,WNW,292,0.0,0.0,68,0.00,,---,0.00,VWS V14.01,2013-03-27 07:50:00,
2013-03-27 02:55:00,27.5,18.3,30.26,WNW,288,0.0,0.0,68,0.00,,OVC060,0.00,VWS V14.01,2013-03-27 07:55:00,
2013-03-27 03:00:00,27.5,18.3,30.26,WNW,288,0.0,0.0,68,0.00,,OVC060,0.00,VWS V14.01,2013-03-27 08:00:00,
2013-03-27 03:05:00,27.5,18.3,30.26,WNW,292,0.0,0.0,68,0.00,,---,0.00,VWS V14.01,2013-03-27 08:05:00,
2013-03-27 03:10:00,27.5,18.3,30.26,WNW,292,0.0,0.0,68,0.00,,---,0.00,VWS V14.01,2013-03-27 08:10:00,
2013-03-27 03:15:00,27.3,18.1,30.26,WNW,292,0.0,0.0,68,0.00,,---,0.00,VWS V14.01,2013-03-27 08:15:00,
2013-03-27 03:20:00,27.3,18.1,30.26,WNW,292,0.0,0.0,68,0.00,,---,0.00,VWS V14.01,2013-03-27 08:20:00,
2013-03-27 03:25:00,27.3,18.1,30.26,WNW,288,0.0,0.0,68,0.00,,OVC060,0.00,VWS V14.01,2013-03-27 08:25:00,
2013-03-27 03:30:00,27.2,18.0,30.26,WNW,292,0.0,0.0,68,0.00,,---,0.00,VWS V14.01,2013-03-27 08:30:00,
2013-03-27 03:35:00,27.2,18.0,30.26,WNW,292,0.0,0.0,68,0.00,,---,0.00,VWS V14.01,2013-03-27 08:35:00,
2013-03-27 03:40:00,27.0,17.9,30.26,WNW,288,0.0,0.0,68,0.00,,OVC060,0.00,VWS V14.01,2013-03-27 08:40:00,
2013-03-27 03:45:00,26.9,17.8,30.26,WNW,288,0.0,0.0,68,0.00,,OVC060,0.00,VWS V14.01,2013-03-27 08:45:00,
2013-03-27 03:50:00,26.9,17.8,30.26,WNW,288,0.0,0.0,68,0.00,,OVC060,0.00,VWS V14.01,2013-03-27 08:50:00,
2013-03-27 03:52:00,27.5,18.3,30.26,WNW,288,0.0,0.0,68,0.00,,OVC060,0.00,VWS V14.01,2013-03-27 08:52:00,
2013-03-27 03:55:00,26.7,17.9,30.26,WNW,288,0.0,0.0,69,0.00,,OVC060,0.00,VWS V14.01,2013-03-27 08:55:00,
2013-03-27 04:00:00,26.6,17.8,30.26,WNW,292,0.0,0.0,69,0.00,,---,0.00,VWS V14.01,2013-03-27 09:00:00,
2013-03-27 04:05:00,26.4,17.6,30.26,WNW,288,0.0,0.0,69,0.00,,BKN060,0.00,VWS V14.01,2013-03-27 09:05:00,
2013-03-27 04:07:00,27.5,18.3,30.26,WNW,288,0.0,0.0,68,0.00,,OVC060,0.00,VWS V14.01,2013-03-27 09:07:00,
2013-03-27 04:10:00,26.3,17.5,30.26,WNW,288,0.0,0.0,69,0.00,,BKN060,0.00,VWS V14.01,2013-03-27 09:10:00,
2013-03-27 04:12:00,27.5,18.3,30.26,WNW,288,0.0,0.0,68,0.00,,OVC060,0.00,VWS V14.01,2013-03-27 09:12:00,
2013-03-27 04:15:00,26.1,17.3,30.26,WNW,288,0.0,0.0,69,0.00,,BKN060,0.00,VWS V14.01,2013-03-27 09:15:00,
2013-03-27 04:20:00,26.0,17.2,30.26,WNW,292,0.0,0.0,69,0.00,,---,0.00,VWS V14.01,2013-03-27 09:20:00,
2013-03-27 04:22:00,27.3,18.1,30.26,WNW,288,0.0,0.0,68,0.00,,OVC060,0.00,VWS V14.01,2013-03-27 09:22:00,
2013-03-27 04:25:00,25.8,17.0,30.26,WNW,288,0.0,0.0,69,0.00,,BKN060,0.00,VWS V14.01,2013-03-27 09:25:00,
2013-03-27 04:30:00,25.6,16.9,30.26,WNW,288,0.0,0.0,69,0.00,,BKN060,0.00,VWS V14.01,2013-03-27 09:30:00,
2013-03-27 04:32:00,27.2,18.0,30.26,WNW,288,0.0,0.0,68,0.00,,OVC060,0.00,VWS V14.01,2013-03-27 09:32:00,
2013-03-27 04:35:00,25.4,16.7,30.26,WNW,288,0.0,0.0,69,0.00,,BKN060,0.00,VWS V14.01,2013-03-27 09:35:00,
2013-03-27 04:37:00,27.2,18.0,30.26,WNW,288,0.0,0.0,68,0.00,,OVC060,0.00,VWS V14.01,2013-03-27 09:37:00,
2013-03-27 04:40:00,25.3,16.6,30.26,WNW,288,0.0,0.0,69,0.00,,BKN060,0.00,VWS V14.01,2013-03-27 09:40:00,
2013-03-27 04:45:00,25.0,16.3,30.26,WNW,292,0.0,0.0,69,0.00,,---,0.00,VWS V14.01,2013-03-27 09:45:00,
2013-03-27 04:50:00,24.8,16.1,30.26,WNW,292,0.0,0.0,69,0.00,,---,0.00,VWS V14.01,2013-03-27 09:50:00,
2013-03-27 04:55:00,24.7,16.0,30.26,WNW,292,0.0,0.0,69,0.00,,---,0.00,VWS V14.01,2013-03-27 09:55:00,
2013-03-27 05:00:00,24.4,16.0,30.26,WNW,288,0.0,0.0,70,0.00,,CLR,0.00,VWS V14.01,2013-03-27 10:00:00,
2013-03-27 05:02:00,26.6,17.8,30.26,WNW,288,0.0,0.0,69,0.00,,BKN060,0.00,VWS V14.01,2013-03-27 10:02:00,
2013-03-27 05:05:00,24.2,15.8,30.26,WNW,288,0.0,0.0,70,0.00,,CLR,0.00,VWS V14.01,2013-03-27 10:05:00,
2013-03-27 05:10:00,24.1,15.8,30.26,WNW,292,0.0,0.0,70,0.00,,---,0.00,VWS V14.01,2013-03-27 10:10:00,
2013-03-27 05:15:00,23.8,15.5,30.27,WNW,292,0.0,0.0,70,0.00,,---,0.00,VWS V14.01,2013-03-27 10:15:00,
2013-03-27 05:20:00,23.6,15.6,30.27,WNW,288,0.0,0.0,71,0.00,,CLR,0.00,VWS V14.01,2013-03-27 10:20:00,
2013-03-27 05:22:00,26.0,17.2,30.26,WNW,288,0.0,0.0,69,0.00,,BKN060,0.00,VWS V14.01,2013-03-27 10:22:00,
2013-03-27 05:25:00,23.5,15.5,30.27,WNW,288,0.0,0.0,71,0.00,,CLR,0.00,VWS V14.01,2013-03-27 10:25:00,
2013-03-27 05:30:00,23.3,15.3,30.28,WNW,292,0.0,0.0,71,0.00,,---,0.00,VWS V14.01,2013-03-27 10:30:00,
2013-03-27 05:35:00,23.0,15.0,30.28,WNW,292,0.0,0.0,71,0.00,,---,0.00,VWS V14.01,2013-03-27 10:35:00,
2013-03-27 05:40:00,22.9,14.9,30.28,WNW,288,0.0,0.0,71,0.00,,CLR,0.00,VWS V14.01,2013-03-27 10:40:00,
2013-03-27 05:45:00,22.5,14.5,30.28,WNW,288,0.0,0.0,71,0.00,,CLR,0.00,VWS V14.01,2013-03-27 10:45:00,
2013-03-27 05:47:00,25.0,16.3,30.26,WNW,288,0.0,0.0,69,0.00,,BKN060,0.00,VWS V14.01,2013-03-27 10:47:00,
2013-03-27 05:50:00,22.4,14.8,30.28,WNW,288,0.0,0.0,72,0.00,,CLR,0.00,VWS V14.01,2013-03-27 10:50:00,
2013-03-27 05:52:00,24.8,16.1,30.26,WNW,288,0.0,0.0,69,0.00,,BKN060,0.00,VWS V14.01,2013-03-27 10:52:00,
2013-03-27 05:55:00,22.1,14.8,30.28,WNW,288,0.0,0.0,73,0.00,,CLR,0.00,VWS V14.01,2013-03-27 10:55:00,
2013-03-27 05:57:00,24.7,16.0,30.26,WNW,288,0.0,0.0,69,0.00,,BKN060,0.00,VWS V14.01,2013-03-27 10:57:00,
2013-03-27 06:00:00,21.8,14.5,30.28,WNW,292,0.0,0.0,73,0.00,,---,0.00,VWS V14.01,2013-03-27 11:00:00,
2013-03-27 06:05:00,21.4,14.4,30.28,WNW,292,0.0,0.0,74,0.00,,---,0.00,VWS V14.01,2013-03-27 11:05:00,
2013-03-27 06:10:00,21.4,14.4,30.28,WNW,288,0.0,0.0,74,0.00,,CLR,0.00,VWS V14.01,2013-03-27 11:10:00,
2013-03-27 06:12:00,24.1,15.8,30.26,WNW,288,0.0,0.0,70,0.00,,CLR,0.00,VWS V14.01,2013-03-27 11:12:00,
2013-03-27 06:15:00,21.3,14.3,30.28,WNW,292,0.0,0.0,74,0.00,,---,0.00,VWS V14.01,2013-03-27 11:15:00,
2013-03-27 06:20:00,21.3,14.3,30.28,WNW,292,0.0,0.0,74,0.00,,---,0.00,VWS V14.01,2013-03-27 11:20:00,
2013-03-27 06:25:00,21.1,14.4,30.28,WNW,292,0.0,0.0,75,0.00,,---,0.00,VWS V14.01,2013-03-27 11:25:00,
2013-03-27 06:30:00,21.1,14.4,30.30,WNW,292,0.0,0.0,75,0.00,,---,0.00,VWS V14.01,2013-03-27 11:30:00,
2013-03-27 06:32:00,23.3,15.3,30.28,WNW,288,0.0,0.0,71,0.00,,CLR,0.00,VWS V14.01,2013-03-27 11:32:00,
2013-03-27 06:35:00,21.3,14.9,30.30,WNW,292,0.0,0.0,76,0.00,,---,0.00,VWS V14.01,2013-03-27 11:35:00,
2013-03-27 06:37:00,23.0,15.0,30.28,WNW,288,0.0,0.0,71,0.00,,CLR,0.00,VWS V14.01,2013-03-27 11:37:00,
2013-03-27 06:40:00,21.4,15.0,30.30,WNW,292,0.0,0.0,76,0.00,,---,0.00,VWS V14.01,2013-03-27 11:40:00,
2013-03-27 06:45:00,21.6,15.5,30.30,WNW,292,0.0,0.0,77,0.00,,---,0.00,VWS V14.01,2013-03-27 11:45:00,
2013-03-27 06:50:00,21.9,15.8,30.30,WNW,292,0.0,0.0,77,0.00,,---,0.00,VWS V14.01,2013-03-27 11:50:00,
2013-03-27 06:55:00,22.5,16.7,30.30,WNW,292,0.0,0.0,78,0.00,,---,0.00,VWS V14.01,2013-03-27 11:55:00,
2013-03-27 07:00:00,23.0,16.9,30.30,WNW,292,0.0,0.0,77,0.00,,---,0.00,VWS V14.01,2013-03-27 12:00:00,
2013-03-27 07:02:00,21.8,14.5,30.28,WNW,288,0.0,0.0,73,0.00,,CLR,0.00,VWS V14.01,2013-03-27 12:02:00,
2013-03-27 07:05:00,23.6,17.5,30.30,WNW,292,0.0,0.0,77,0.00,,---,0.00,VWS V14.01,2013-03-27 12:05:00,
2013-03-27 07:07:00,21.4,14.4,30.28,WNW,288,0.0,0.0,74,0.00,,CLR,0.00,VWS V14.01,2013-03-27 12:07:00,
2013-03-27 07:10:00,24.1,18.0,30.30,WNW,292,0.0,0.0,77,0.00,,---,0.00,VWS V14.01,2013-03-27 12:10:00,
2013-03-27 07:15:00,24.7,18.2,30.30,WNW,292,0.0,0.0,76,0.00,,---,0.00,VWS V14.01,2013-03-27 12:15:00,
2013-03-27 07:17:00,21.3,14.3,30.28,WNW,288,0.0,0.0,74,0.00,,CLR,0.00,VWS V14.01,2013-03-27 12:17:00,
2013-03-27 07:20:00,25.3,18.8,30.30,WNW,292,0.0,0.0,76,0.00,,---,0.00,VWS V14.01,2013-03-27 12:20:00,
2013-03-27 07:22:00,21.3,14.3,30.28,WNW,288,0.0,0.0,74,0.00,,CLR,0.00,VWS V14.01,2013-03-27 12:22:00,
2013-03-27 07:25:00,26.1,19.0,30.30,WNW,292,0.0,0.0,74,0.00,,---,0.00,VWS V14.01,2013-03-27 12:25:00,
2013-03-27 07:30:00,26.9,19.1,30.30,WNW,292,0.0,0.0,72,0.00,,---,0.00,VWS V14.01,2013-03-27 12:30:00,
2013-03-27 07:32:00,21.1,14.4,30.30,WNW,288,0.0,0.0,75,0.00,,CLR,0.00,VWS V14.01,2013-03-27 12:32:00,
2013-03-27 07:35:00,27.8,19.6,30.30,WNW,292,0.0,0.0,71,0.00,,---,0.00,VWS V14.01,2013-03-27 12:35:00,
2013-03-27 07:37:00,21.3,14.9,30.30,WNW,288,0.0,0.0,76,0.00,,CLR,0.00,VWS V14.01,2013-03-27 12:37:00,
2013-03-27 07:40:00,28.4,18.9,30.30,WNW,292,0.0,0.0,67,0.00,,---,0.00,VWS V14.01,2013-03-27 12:40:00,
2013-03-27 07:42:00,21.4,15.0,30.30,WNW,288,0.0,0.0,76,0.00,,CLR,0.00,VWS V14.01,2013-03-27 12:42:00,
2013-03-27 07:45:00,28.8,18.5,30.29,WNW,292,0.0,0.0,65,0.00,,---,0.00,VWS V14.01,2013-03-27 12:45:00,
2013-03-27 07:47:00,21.6,15.5,30.30,WNW,288,0.0,0.0,77,0.00,,CLR,0.00,VWS V14.01,2013-03-27 12:47:00,
2013-03-27 07:50:00,29.1,18.5,30.29,WNW,292,0.0,0.0,64,0.00,,---,0.00,VWS V14.01,2013-03-27 12:50:00,
2013-03-27 07:52:00,21.9,15.8,30.30,WNW,288,0.0,0.0,77,0.00,,CLR,0.00,VWS V14.01,2013-03-27 12:52:00,
2013-03-27 07:55:00,29.3,18.3,30.29,WNW,292,0.0,0.0,63,0.00,,---,0.00,VWS V14.01,2013-03-27 12:55:00,
2013-03-27 07:57:00,22.5,16.7,30.30,WNW,288,0.0,0.0,78,0.00,,CLR,0.00,VWS V14.01,2013-03-27 12:57:00,
2013-03-27 08:00:00,29.4,18.0,30.29,WNW,292,0.0,0.0,62,0.00,,---,0.00,VWS V14.01,2013-03-27 13:00:00,
2013-03-27 08:02:00,23.0,16.9,30.30,WNW,288,0.0,0.0,77,0.00,,CLR,0.00,VWS V14.01,2013-03-27 13:02:00,
2013-03-27 08:05:00,29.5,18.1,30.29,WNW,292,0.0,0.0,62,0.00,,---,0.00,VWS V14.01,2013-03-27 13:05:00,
2013-03-27 08:10:00,29.7,17.9,30.29,WNW,292,0.0,0.0,61,0.00,,---,0.00,VWS V14.01,2013-03-27 13:10:00,
2013-03-27 08:12:00,24.1,18.0,30.30,WNW,288,0.0,0.0,77,0.00,,CLR,0.00,VWS V14.01,2013-03-27 13:12:00,
2013-03-27 08:15:00,30.0,18.2,30.29,WNW,292,0.0,0.0,61,0.00,,---,0.00,VWS V14.01,2013-03-27 13:15:00,
2013-03-27 08:17:00,24.7,18.2,30.30,WNW,288,0.0,0.0,76,0.00,,CLR,0.00,VWS V14.01,2013-03-27 13:17:00,
2013-03-27 08:20:00,30.1,17.5,30.29,WNW,292,0.0,0.0,59,0.00,,---,0.00,VWS V14.01,2013-03-27 13:20:00,
2013-03-27 08:22:00,25.3,18.8,30.30,WNW,288,0.0,0.0,76,0.00,,CLR,0.00,VWS V14.01,2013-03-27 13:22:00,
2013-03-27 08:25:00,30.3,18.1,30.29,WNW,292,0.0,0.0,60,0.00,,---,0.00,VWS V14.01,2013-03-27 13:25:00,
2013-03-27 08:27:00,26.1,19.0,30.30,WNW,288,0.0,0.0,74,0.00,,CLR,0.00,VWS V14.01,2013-03-27 13:27:00,
2013-03-27 08:30:00,30.4,17.8,30.29,WNW,292,0.0,0.0,59,0.00,,---,0.00,VWS V14.01,2013-03-27 13:30:00,
2013-03-27 08:35:00,30.7,18.1,30.29,WNW,292,0.0,0.0,59,0.00,,---,0.00,VWS V14.01,2013-03-27 13:35:00,
2013-03-27 08:37:00,27.8,19.6,30.30,WNW,288,0.0,0.0,71,0.00,,CLR,0.00,VWS V14.01,2013-03-27 13:37:00,
2013-03-27 08:40:00,31.2,18.5,30.29,WNW,292,0.0,0.0,59,0.00,,---,0.00,VWS V14.01,2013-03-27 13:40:00,
2013-03-27 08:42:00,28.4,18.9,30.30,WNW,288,0.0,0.0,67,0.00,,CLR,0.00,VWS V14.01,2013-03-27 13:42:00,
2013-03-27 08:45:00,31.8,18.7,30.29,WNW,292,0.0,0.0,58,0.00,,---,0.00,VWS V14.01,2013-03-27 13:45:00,
2013-03-27 08:47:00,28.8,18.5,30.29,WNW,288,0.0,0.0,65,0.00,,CLR,0.00,VWS V14.01,2013-03-27 13:47:00,
2013-03-27 08:50:00,32.2,18.7,30.29,WNW,292,0.0,0.0,57,0.00,,---,0.00,VWS V14.01,2013-03-27 13:50:00,
2013-03-27 08:52:00,29.1,18.5,30.29,WNW,288,0.0,0.0,64,0.00,,CLR,0.00,VWS V14.01,2013-03-27 13:52:00,
2013-03-27 08:55:00,32.8,19.3,30.29,WNW,292,0.0,0.0,57,0.00,,---,0.00,VWS V14.01,2013-03-27 13:55:00,
2013-03-27 08:57:00,29.3,18.3,30.29,WNW,288,0.0,0.0,63,0.00,,CLR,0.00,VWS V14.01,2013-03-27 13:57:00,
2013-03-27 09:00:00,33.4,19.0,30.29,WNW,292,0.0,0.0,55,0.00,,---,0.00,VWS V14.01,2013-03-27 14:00:00,
2013-03-27 09:02:00,29.4,18.0,30.29,WNW,288,0.0,0.0,62,0.00,,CLR,0.00,VWS V14.01,2013-03-27 14:02:00,
2013-03-27 09:05:00,33.8,18.9,30.29,WNW,292,0.0,0.0,54,0.00,,---,0.00,VWS V14.01,2013-03-27 14:05:00,
2013-03-27 09:07:00,29.5,18.1,30.29,WNW,288,0.0,0.0,62,0.00,,CLR,0.00,VWS V14.01,2013-03-27 14:07:00,
2013-03-27 09:10:00,34.1,18.3,30.29,WNW,292,0.0,0.0,52,0.00,,---,0.00,VWS V14.01,2013-03-27 14:10:00,
2013-03-27 09:15:00,34.6,18.8,30.30,WNW,292,0.0,0.0,52,0.00,,---,0.00,VWS V14.01,2013-03-27 14:15:00,
2013-03-27 09:17:00,30.0,18.2,30.29,WNW,288,0.0,0.0,61,0.00,,CLR,0.00,VWS V14.01,2013-03-27 14:17:00,
2013-03-27 09:20:00,34.9,18.2,30.30,WNW,292,0.0,0.0,50,0.00,,---,0.00,VWS V14.01,2013-03-27 14:20:00,
2013-03-27 09:22:00,30.1,17.5,30.29,WNW,288,0.0,0.0,59,0.00,,CLR,0.00,VWS V14.01,2013-03-27 14:22:00,
2013-03-27 09:25:00,35.3,18.5,30.30,NW,315,0.0,3.0,50,0.00,,---,0.00,VWS V14.01,2013-03-27 14:25:00,
2013-03-27 09:27:00,30.3,18.1,30.29,WNW,288,0.0,0.0,60,0.00,,CLR,0.00,VWS V14.01,2013-03-27 14:27:00,
2013-03-27 09:30:00,35.8,18.5,30.30,NW,315,1.0,5.0,49,0.00,,---,0.00,VWS V14.01,2013-03-27 14:30:00,
2013-03-27 09:32:00,30.4,17.8,30.29,WNW,288,0.0,0.0,59,0.00,,CLR,0.00,VWS V14.01,2013-03-27 14:32:00,
2013-03-27 09:35:00,36.2,19.4,30.30,NW,315,0.0,0.0,50,0.00,,---,0.00,VWS V14.01,2013-03-27 14:35:00,
2013-03-27 09:40:00,36.5,17.7,30.30,NW,315,0.0,0.0,46,0.00,,---,0.00,VWS V14.01,2013-03-27 14:40:00,
2013-03-27 09:42:00,31.2,18.5,30.29,WNW,288,0.0,0.0,59,0.00,,CLR,0.00,VWS V14.01,2013-03-27 14:42:00,
2013-03-27 09:45:00,36.8,17.5,30.30,NW,315,0.0,0.0,45,0.00,,---,0.00,VWS V14.01,2013-03-27 14:45:00,
2013-03-27 09:47:00,31.8,18.7,30.29,WNW,288,0.0,0.0,58,0.00,,CLR,0.00,VWS V14.01,2013-03-27 14:47:00,
2013-03-27 09:50:00,37.0,17.6,30.30,NW,315,0.0,0.0,45,0.00,,---,0.00,VWS V14.01,2013-03-27 14:50:00,
2013-03-27 09:52:00,32.2,18.7,30.29,WNW,288,0.0,0.0,57,0.00,,CLR,0.00,VWS V14.01,2013-03-27 14:52:00,
2013-03-27 09:55:00,37.6,17.1,30.30,NW,315,0.0,3.0,43,0.00,,---,0.00,VWS V14.01,2013-03-27 14:55:00,
2013-03-27 10:00:00,38.2,17.1,30.30,WNW,292,2.0,5.0,42,0.00,,---,0.00,VWS V14.01,2013-03-27 15:00:00,
2013-03-27 10:02:00,33.4,19.0,30.29,WNW,288,0.0,0.0,55,0.00,,CLR,0.00,VWS V14.01,2013-03-27 15:02:00,
2013-03-27 10:05:00,38.6,17.5,30.30,WNW,292,0.0,3.0,42,0.00,,---,0.00,VWS V14.01,2013-03-27 15:05:00,
2013-03-27 10:07:00,33.8,18.9,30.29,WNW,288,0.0,0.0,54,0.00,,CLR,0.00,VWS V14.01,2013-03-27 15:07:00,
2013-03-27 10:10:00,39.3,17.6,30.30,WNW,292,1.0,4.0,41,0.00,,---,0.00,VWS V14.01,2013-03-27 15:10:00,
2013-03-27 10:12:00,34.1,18.3,30.29,WNW,294,0.0,0.0,52,0.00,,CLR,0.00,VWS V14.01,2013-03-27 15:12:00,
2013-03-27 10:15:00,39.5,17.2,30.30,WNW,292,1.0,5.0,40,0.00,,---,0.00,VWS V14.01,2013-03-27 15:15:00,
2013-03-27 10:17:00,34.6,18.8,30.30,NW,306,0.0,0.0,52,0.00,,CLR,0.00,VWS V14.01,2013-03-27 15:17:00,
2013-03-27 10:20:00,39.6,17.9,30.30,WNW,292,1.0,5.0,41,0.00,,---,0.00,VWS V14.01,2013-03-27 15:20:00,
2013-03-27 10:22:00,34.9,18.2,30.30,NW,315,0.0,0.0,50,0.00,,CLR,0.00,VWS V14.01,2013-03-27 15:22:00,
2013-03-27 10:25:00,39.8,17.5,30.30,WNW,292,1.0,6.0,40,0.00,,---,0.00,VWS V14.01,2013-03-27 15:25:00,
2013-03-27 10:27:00,35.3,18.5,30.30,NW,315,0.0,3.0,50,0.00,,CLR,0.00,VWS V14.01,2013-03-27 15:27:00,
2013-03-27 10:30:00,39.6,17.3,30.30,NW,315,0.0,3.0,40,0.00,,---,0.00,VWS V14.01,2013-03-27 15:30:00,
2013-03-27 10:32:00,35.8,18.5,30.30,NW,315,0.0,5.0,49,0.00,,CLR,0.00,VWS V14.01,2013-03-27 15:32:00,
2013-03-27 10:35:00,39.9,17.5,30.30,NW,315,0.0,0.0,40,0.00,,---,0.00,VWS V14.01,2013-03-27 15:35:00,
2013-03-27 10:37:00,36.2,19.4,30.30,NW,315,0.0,0.0,50,0.00,,CLR,0.00,VWS V14.01,2013-03-27 15:37:00,
2013-03-27 10:40:00,40.1,17.1,30.30,NW,315,0.0,5.0,39,0.00,,---,0.00,VWS V14.01,2013-03-27 15:40:00,
2013-03-27 10:42:00,36.5,17.7,30.30,NW,320,0.0,0.0,46,0.00,,CLR,0.00,VWS V14.01,2013-03-27 15:42:00,
2013-03-27 10:45:00,39.9,16.4,30.30,WNW,292,1.0,6.0,38,0.00,,---,0.00,VWS V14.01,2013-03-27 15:45:00,
2013-03-27 10:50:00,40.2,17.2,30.30,WNW,292,0.0,4.0,39,0.00,,---,0.00,VWS V14.01,2013-03-27 15:50:00,
2013-03-27 10:52:00,37.0,17.6,30.30,NNW,334,0.0,0.0,45,0.00,,CLR,0.00,VWS V14.01,2013-03-27 15:52:00,
2013-03-27 10:55:00,40.6,16.4,30.30,WNW,292,1.0,4.0,37,0.00,,---,0.00,VWS V14.01,2013-03-27 15:55:00,
2013-03-27 10:57:00,37.6,17.1,30.30,NW,318,2.0,3.0,43,0.00,,CLR,0.00,VWS V14.01,2013-03-27 15:57:00,
2013-03-27 11:00:00,41.1,16.2,30.30,WNW,292,0.0,4.0,36,0.00,,---,0.00,VWS V14.01,2013-03-27 16:00:00,
2013-03-27 11:02:00,38.2,17.1,30.30,WNW,299,3.0,5.0,42,0.00,,CLR,0.00,VWS V14.01,2013-03-27 16:02:00,
2013-03-27 11:05:00,40.8,15.9,30.30,WNW,292,0.0,0.0,36,0.00,,---,0.00,VWS V14.01,2013-03-27 16:05:00,
2013-03-27 11:10:00,40.6,15.1,30.30,WNW,292,0.0,0.0,35,0.00,,---,0.00,VWS V14.01,2013-03-27 16:10:00,
2013-03-27 11:12:00,39.3,17.6,30.30,WNW,295,3.0,4.0,41,0.00,,CLR,0.00,VWS V14.01,2013-03-27 16:12:00,
2013-03-27 11:15:00,41.1,15.6,30.30,WNW,292,0.0,4.0,35,0.00,,---,0.00,VWS V14.01,2013-03-27 16:15:00,
2013-03-27 11:17:00,39.5,17.2,30.30,NW,304,4.0,5.0,40,0.00,,CLR,0.00,VWS V14.01,2013-03-27 16:17:00,
2013-03-27 11:20:00,41.1,15.6,30.30,WNW,292,0.0,1.0,35,0.00,,---,0.00,VWS V14.01,2013-03-27 16:20:00,
2013-03-27 11:22:00,39.6,17.9,30.30,WNW,302,0.0,4.0,41,0.00,,CLR,0.00,VWS V14.01,2013-03-27 16:22:00,
2013-03-27 11:25:00,40.5,15.7,30.30,WNW,292,0.0,0.0,36,0.00,,---,0.00,VWS V14.01,2013-03-27 16:25:00,
2013-03-27 11:27:00,39.8,17.5,30.30,WNW,302,4.0,6.0,40,0.00,,CLR,0.00,VWS V14.01,2013-03-27 16:27:00,
2013-03-27 11:30:00,40.2,16.0,30.29,WNW,292,0.0,0.0,37,0.00,,---,0.00,VWS V14.01,2013-03-27 16:30:00,
2013-03-27 11:35:00,40.1,16.5,30.29,WNW,292,0.0,0.0,38,0.00,,---,0.00,VWS V14.01,2013-03-27 16:35:00,
2013-03-27 11:37:00,39.9,17.5,30.30,NW,308,0.0,0.0,40,0.00,,CLR,0.00,VWS V14.01,2013-03-27 16:37:00,
2013-03-27 11:40:00,40.2,15.4,30.29,WNW,292,0.0,0.0,36,0.00,,---,0.00,VWS V14.01,2013-03-27 16:40:00,
2013-03-27 11:42:00,40.1,17.1,30.30,NW,315,0.0,5.0,39,0.00,,CLR,0.00,VWS V14.01,2013-03-27 16:42:00,
2013-03-27 11:45:00,40.9,17.3,30.29,West,270,1.0,6.0,38,0.00,,---,0.00,VWS V14.01,2013-03-27 16:45:00,
2013-03-27 11:50:00,41.1,16.8,30.29,WNW,292,3.0,9.0,37,0.00,,---,0.00,VWS V14.01,2013-03-27 16:50:00,
2013-03-27 11:52:00,40.2,17.2,30.30,West,261,0.0,4.0,39,0.00,,CLR,0.00,VWS V14.01,2013-03-27 16:52:00,
2013-03-27 11:55:00,40.8,16.6,30.29,WNW,292,0.0,3.0,37,0.00,,---,0.00,VWS V14.01,2013-03-27 16:55:00,
2013-03-27 12:00:00,40.5,16.3,30.29,WNW,292,0.0,0.0,37,0.00,,---,0.00,VWS V14.01,2013-03-27 17:00:00,
2013-03-27 12:03:00,41.1,16.2,30.30,WNW,284,0.0,4.0,36,0.00,,CLR,0.00,VWS V14.01,2013-03-27 17:03:00,
2013-03-27 12:05:00,40.5,16.3,30.29,WNW,292,0.0,0.0,37,0.00,,---,0.00,VWS V14.01,2013-03-27 17:05:00,
2013-03-27 12:10:00,41.2,15.0,30.29,WNW,292,0.0,0.0,34,0.00,,---,0.00,VWS V14.01,2013-03-27 17:10:00,
2013-03-27 12:12:00,40.6,15.1,30.30,WNW,284,0.0,0.0,35,0.00,,CLR,0.00,VWS V14.01,2013-03-27 17:12:00,
2013-03-27 12:15:00,41.6,14.6,30.29,WNW,292,0.0,0.0,33,0.00,,---,0.00,VWS V14.01,2013-03-27 17:15:00,
2013-03-27 12:17:00,41.1,15.6,30.30,WNW,284,2.0,4.0,35,0.00,,CLR,0.00,VWS V14.01,2013-03-27 17:17:00,
2013-03-27 12:20:00,41.2,15.0,30.29,WNW,292,0.0,0.0,34,0.00,,---,0.00,VWS V14.01,2013-03-27 17:20:00,
2013-03-27 12:22:00,41.1,15.6,30.30,NNW,340,0.0,2.0,35,0.00,,CLR,0.00,VWS V14.01,2013-03-27 17:22:00,
2013-03-27 12:25:00,41.5,17.2,30.29,WNW,292,0.0,0.0,37,0.00,,---,0.00,VWS V14.01,2013-03-27 17:25:00,
2013-03-27 12:27:00,40.5,15.7,30.30,NNW,344,0.0,0.0,36,0.00,,CLR,0.00,VWS V14.01,2013-03-27 17:27:00,
2013-03-27 12:30:00,41.9,16.9,30.28,WSW,248,1.0,9.0,36,0.00,,---,0.00,VWS V14.01,2013-03-27 17:30:00,
2013-03-27 12:35:00,43.1,16.7,30.28,West,270,1.0,8.0,34,0.00,,---,0.00,VWS V14.01,2013-03-27 17:35:00,
2013-03-27 12:37:00,40.1,16.5,30.29,NNW,344,0.0,0.0,38,0.00,,CLR,0.00,VWS V14.01,2013-03-27 17:37:00,
2013-03-27 12:40:00,43.6,16.4,30.28,SW,225,0.0,7.0,33,0.00,,---,0.00,VWS V14.01,2013-03-27 17:40:00,
2013-03-27 12:42:00,40.2,15.4,30.29,NNW,347,0.0,0.0,36,0.00,,CLR,0.00,VWS V14.01,2013-03-27 17:42:00,
2013-03-27 12:45:00,43.9,18.7,30.28,West,270,3.0,10.0,36,0.00,,---,0.00,VWS V14.01,2013-03-27 17:45:00,
2013-03-27 12:47:00,40.9,17.3,30.29,WNW,284,2.0,6.0,38,0.00,,CLR,0.00,VWS V14.01,2013-03-27 17:47:00,
2013-03-27 12:50:00,43.3,16.1,30.28,WNW,292,2.0,7.0,33,0.00,,---,0.00,VWS V14.01,2013-03-27 17:50:00,
2013-03-27 12:55:00,43.6,15.7,30.28,WNW,292,0.0,0.0,32,0.00,,---,0.00,VWS V14.01,2013-03-27 17:55:00,
2013-03-27 12:57:00,40.8,16.6,30.29,NNW,329,0.0,3.0,37,0.00,,CLR,0.00,VWS V14.01,2013-03-27 17:57:00,
2013-03-27 13:00:00,43.5,17.7,30.28,West,270,1.0,9.0,35,0.00,,---,0.00,VWS V14.01,2013-03-27 18:00:00,
2013-03-27 13:02:00,40.5,16.3,30.29,NNW,342,0.0,0.0,37,0.00,,CLR,0.00,VWS V14.01,2013-03-27 18:02:00,
2013-03-27 13:05:00,42.6,17.5,30.28,WNW,292,3.0,10.0,36,0.00,,---,0.00,VWS V14.01,2013-03-27 18:05:00,
2013-03-27 13:10:00,42.8,17.1,30.28,West,270,1.0,9.0,35,0.00,,---,0.00,VWS V14.01,2013-03-27 18:10:00,
2013-03-27 13:12:00,41.2,15.0,30.29,NNE,22,0.0,0.0,34,0.00,,CLR,0.00,VWS V14.01,2013-03-27 18:12:00,
2013-03-27 13:15:00,42.5,17.4,30.28,West,270,2.0,7.0,36,0.00,,---,0.00,VWS V14.01,2013-03-27 18:15:00,
2013-03-27 13:17:00,41.6,14.6,30.29,NE,35,0.0,0.0,33,0.00,,CLR,0.00,VWS V14.01,2013-03-27 18:17:00,
2013-03-27 13:20:00,42.3,17.9,30.28,WNW,292,3.0,7.0,37,0.00,,---,0.00,VWS V14.01,2013-03-27 18:20:00,
2013-03-27 13:25:00,42.6,16.9,30.28,WNW,292,2.0,7.0,35,0.00,,---,0.00,VWS V14.01,2013-03-27 18:25:00,
2013-03-27 13:27:00,41.5,17.2,30.29,West,269,0.0,0.0,37,0.00,,CLR,0.00,VWS V14.01,2013-03-27 18:27:00,
2013-03-27 13:30:00,42.6,16.9,30.28,WNW,292,4.0,8.0,35,0.00,,---,0.00,VWS V14.01,2013-03-27 18:30:00,
2013-03-27 13:32:00,41.9,16.9,30.28,SW,234,9.0,9.0,36,0.00,,CLR,0.00,VWS V14.01,2013-03-27 18:32:00,
2013-03-27 13:35:00,42.2,16.5,30.28,WNW,292,1.0,4.0,35,0.00,,---,0.00,VWS V14.01,2013-03-27 18:35:00,
2013-03-27 13:40:00,41.9,18.2,30.28,WNW,292,1.0,10.0,38,0.00,,---,0.00,VWS V14.01,2013-03-27 18:40:00,
2013-03-27 13:42:00,43.6,16.4,30.28,SW,227,0.0,7.0,33,0.00,,CLR,0.00,VWS V14.01,2013-03-27 18:42:00,
2013-03-27 13:45:00,41.9,17.5,30.27,WNW,292,2.0,6.0,37,0.00,,---,0.00,VWS V14.01,2013-03-27 18:45:00,
2013-03-27 13:50:00,41.6,17.3,30.27,NNW,338,2.0,6.0,37,0.00,,---,0.00,VWS V14.01,2013-03-27 18:50:00,
2013-03-27 13:52:00,43.3,16.1,30.28,West,281,0.0,7.0,33,0.00,,CLR,0.00,VWS V14.01,2013-03-27 18:52:00,
2013-03-27 13:55:00,41.3,17.0,30.27,North,0,1.0,6.0,37,0.00,,---,0.00,VWS V14.01,2013-03-27 18:55:00,
2013-03-27 13:57:00,43.6,15.7,30.28,West,281,0.0,0.0,32,0.00,,CLR,0.00,VWS V14.01,2013-03-27 18:57:00,
2013-03-27 14:00:00,41.8,17.5,30.27,NW,315,1.0,5.0,37,0.00,,---,0.00,VWS V14.01,2013-03-27 19:00:00,
2013-03-27 14:05:00,41.9,17.5,30.27,NNW,338,2.0,6.0,37,0.00,,---,0.00,VWS V14.01,2013-03-27 19:05:00,
2013-03-27 14:07:00,42.6,17.5,30.28,West,270,10.0,10.0,36,0.00,,CLR,0.00,VWS V14.01,2013-03-27 19:07:00,
2013-03-27 14:10:00,41.9,18.2,30.27,NNW,338,0.0,5.0,38,0.00,,---,0.00,VWS V14.01,2013-03-27 19:10:00,
2013-03-27 14:15:00,42.2,17.8,30.27,NW,315,0.0,2.0,37,0.00,,---,0.00,VWS V14.01,2013-03-27 19:15:00,
2013-03-27 14:17:00,42.5,17.4,30.28,WNW,297,0.0,7.0,36,0.00,,CLR,0.00,VWS V14.01,2013-03-27 19:17:00,
2013-03-27 14:20:00,42.2,17.2,30.27,NNW,338,1.0,8.0,36,0.00,,---,0.00,VWS V14.01,2013-03-27 19:20:00,
2013-03-27 14:22:00,42.3,17.9,30.28,WNW,289,0.0,7.0,37,0.00,,CLR,0.00,VWS V14.01,2013-03-27 19:22:00,
2013-03-27 14:25:00,42.2,18.4,30.27,NW,315,4.0,9.0,38,0.00,,---,0.00,VWS V14.01,2013-03-27 19:25:00,
2013-03-27 14:30:00,42.1,17.7,30.27,NW,315,1.0,5.0,37,0.00,,---,0.00,VWS V14.01,2013-03-27 19:30:00,
2013-03-27 14:32:00,42.6,16.9,30.28,WNW,301,4.0,8.0,35,0.00,,CLR,0.00,VWS V14.01,2013-03-27 19:32:00,
2013-03-27 14:35:00,42.1,17.1,30.27,WNW,292,0.0,4.0,36,0.00,,---,0.00,VWS V14.01,2013-03-27 19:35:00,
2013-03-27 14:37:00,42.2,16.5,30.28,NW,321,0.0,4.0,35,0.00,,CLR,0.00,VWS V14.01,2013-03-27 19:37:00,
2013-03-27 14:40:00,41.9,17.5,30.27,NNW,338,1.0,6.0,37,0.00,,---,0.00,VWS V14.01,2013-03-27 19:40:00,
2013-03-27 14:42:00,41.9,18.2,30.28,WNW,296,4.0,10.0,38,0.00,,CLR,0.00,VWS V14.01,2013-03-27 19:42:00,
2013-03-27 14:45:00,41.9,18.2,30.27,NW,315,2.0,7.0,38,0.00,,---,0.00,VWS V14.01,2013-03-27 19:45:00,
2013-03-27 14:47:00,41.9,17.5,30.27,NNW,340,0.0,5.0,37,0.00,,CLR,0.00,VWS V14.01,2013-03-27 19:47:00,
2013-03-27 14:50:00,41.8,17.5,30.27,NW,315,1.0,6.0,37,0.00,,---,0.00,VWS V14.01,2013-03-27 19:50:00,
2013-03-27 14:52:00,41.6,17.3,30.27,NNW,344,4.0,6.0,37,0.00,,CLR,0.00,VWS V14.01,2013-03-27 19:52:00,
2013-03-27 14:55:00,41.9,18.2,30.27,West,270,1.0,5.0,38,0.00,,---,0.00,VWS V14.01,2013-03-27 19:55:00,
2013-03-27 14:57:00,41.3,17.0,30.27,NNW,340,0.0,6.0,37,0.00,,CLR,0.00,VWS V14.01,2013-03-27 19:57:00,
2013-03-27 15:00:00,41.8,16.8,30.26,West,270,0.0,0.0,36,0.00,,---,0.00,VWS V14.01,2013-03-27 20:00:00,
2013-03-27 15:05:00,41.8,18.1,30.26,NNW,338,1.0,5.0,38,0.00,,---,0.00,VWS V14.01,2013-03-27 20:05:00,
2013-03-27 15:07:00,41.9,17.5,30.27,NW,325,0.0,6.0,37,0.00,,CLR,0.00,VWS V14.01,2013-03-27 20:07:00,
2013-03-27 15:10:00,41.8,17.5,30.26,NW,315,0.0,4.0,37,0.00,,---,0.00,VWS V14.01,2013-03-27 20:10:00,
2013-03-27 15:12:00,41.9,18.2,30.27,North,355,0.0,5.0,38,0.00,,CLR,0.00,VWS V14.01,2013-03-27 20:12:00,
2013-03-27 15:15:00,41.6,17.3,30.26,NNW,338,1.0,6.0,37,0.00,,---,0.00,VWS V14.01,2013-03-27 20:15:00,
2013-03-27 15:17:00,42.2,17.8,30.27,WNW,302,0.0,2.0,37,0.00,,CLR,0.00,VWS V14.01,2013-03-27 20:17:00,
2013-03-27 15:20:00,41.6,18.5,30.26,WNW,292,1.0,5.0,39,0.00,,---,0.00,VWS V14.01,2013-03-27 20:20:00,
2013-03-27 15:25:00,41.8,17.5,30.26,WNW,292,0.0,6.0,37,0.00,,---,0.00,VWS V14.01,2013-03-27 20:25:00,
2013-03-27 15:27:00,42.2,18.4,30.27,NW,308,6.0,9.0,38,0.00,,CLR,0.00,VWS V14.01,2013-03-27 20:27:00,
2013-03-27 15:30:00,42.2,17.8,30.26,WNW,292,1.0,6.0,37,0.00,,---,0.00,VWS V14.01,2013-03-27 20:30:00,
2013-03-27 15:35:00,42.1,17.7,30.26,WNW,292,1.0,5.0,37,0.00,,---,0.00,VWS V14.01,2013-03-27 20:35:00,
2013-03-27 15:37:00,42.1,17.1,30.27,NNE,19,0.0,4.0,36,0.00,,CLR,0.00,VWS V14.01,2013-03-27 20:37:00,
2013-03-27 15:40:00,41.8,18.1,30.26,NW,315,0.0,1.0,38,0.00,,---,0.00,VWS V14.01,2013-03-27 20:40:00,
2013-03-27 15:45:00,41.8,18.1,30.25,WNW,292,0.0,5.0,38,0.00,,---,0.00,VWS V14.01,2013-03-27 20:45:00,
2013-03-27 15:47:00,41.9,18.2,30.27,NW,313,2.0,7.0,38,0.00,,CLR,0.00,VWS V14.01,2013-03-27 20:47:00,
2013-03-27 15:50:00,41.6,17.9,30.25,WNW,292,0.0,0.0,38,0.00,,---,0.00,VWS V14.01,2013-03-27 20:50:00,
2013-03-27 15:55:00,41.6,17.9,30.25,WNW,292,1.0,5.0,38,0.00,,---,0.00,VWS V14.01,2013-03-27 20:55:00,
2013-03-27 15:57:00,41.9,18.2,30.27,NNW,347,0.0,5.0,38,0.00,,CLR,0.00,VWS V14.01,2013-03-27 20:57:00,
2013-03-27 16:00:00,41.5,17.8,30.25,WNW,292,2.0,5.0,38,0.00,,---,0.00,VWS V14.01,2013-03-27 21:00:00,
2013-03-27 16:02:00,41.8,16.8,30.26,North,5,0.0,0.0,36,0.00,,CLR,0.00,VWS V14.01,2013-03-27 21:02:00,
2013-03-27 16:05:00,41.5,17.8,30.25,WNW,292,0.0,4.0,38,0.00,,---,0.00,VWS V14.01,2013-03-27 21:05:00,
2013-03-27 16:10:00,41.5,17.8,30.25,WNW,292,2.0,7.0,38,0.00,,---,0.00,VWS V14.01,2013-03-27 21:10:00,
2013-03-27 16:12:00,41.8,17.5,30.26,North,5,0.0,4.0,37,0.00,,CLR,0.00,VWS V14.01,2013-03-27 21:12:00,
2013-03-27 16:15:00,41.3,17.6,30.26,WNW,292,1.0,5.0,38,0.00,,---,0.00,VWS V14.01,2013-03-27 21:15:00,
2013-03-27 16:20:00,41.1,18.0,30.26,WNW,292,0.0,0.0,39,0.00,,---,0.00,VWS V14.01,2013-03-27 21:20:00,
2013-03-27 16:22:00,41.6,18.5,30.26,NNW,328,0.0,5.0,39,0.00,,CLR,0.00,VWS V14.01,2013-03-27 21:22:00,
2013-03-27 16:25:00,41.1,17.4,30.26,NW,315,2.0,5.0,38,0.00,,---,0.00,VWS V14.01,2013-03-27 21:25:00,
2013-03-27 16:27:00,41.8,17.5,30.26,WNW,298,0.0,6.0,37,0.00,,CLR,0.00,VWS V14.01,2013-03-27 21:27:00,
2013-03-27 16:30:00,40.9,17.9,30.26,WNW,292,0.0,3.0,39,0.00,,---,0.00,VWS V14.01,2013-03-27 21:30:00,
2013-03-27 16:35:00,40.9,18.5,30.26,WNW,292,1.0,5.0,40,0.00,,---,0.00,VWS V14.01,2013-03-27 21:35:00,
2013-03-27 16:37:00,42.1,17.7,30.26,NW,321,0.0,5.0,37,0.00,,CLR,0.00,VWS V14.01,2013-03-27 21:37:00,
2013-03-27 16:40:00,41.1,18.6,30.26,WNW,292,2.0,7.0,40,0.00,,---,0.00,VWS V14.01,2013-03-27 21:40:00,
2013-03-27 16:42:00,41.8,18.1,30.26,NW,314,0.0,1.0,38,0.00,,CLR,0.00,VWS V14.01,2013-03-27 21:42:00,
2013-03-27 16:45:00,40.9,17.9,30.26,WNW,292,3.0,9.0,39,0.00,,---,0.00,VWS V14.01,2013-03-27 21:45:00,
2013-03-27 16:47:00,41.8,18.1,30.25,NNW,332,0.0,5.0,38,0.00,,CLR,0.00,VWS V14.01,2013-03-27 21:47:00,
2013-03-27 16:50:00,40.9,18.5,30.26,WNW,292,2.0,5.0,40,0.00,,---,0.00,VWS V14.01,2013-03-27 21:50:00,
2013-03-27 16:52:00,41.6,17.9,30.25,NNW,346,0.0,0.0,38,0.00,,CLR,0.00,VWS V14.01,2013-03-27 21:52:00,
2013-03-27 16:55:00,40.8,18.4,30.26,WNW,292,2.0,6.0,40,0.00,,---,0.00,VWS V14.01,2013-03-27 21:55:00,
2013-03-27 16:57:00,41.6,17.9,30.25,WNW,293,0.0,5.0,38,0.00,,CLR,0.00,VWS V14.01,2013-03-27 21:57:00,
2013-03-27 17:00:00,40.8,17.2,30.26,West,270,0.0,3.0,38,0.00,,---,0.00,VWS V14.01,2013-03-27 22:00:00,
2013-03-27 17:05:00,40.6,18.2,30.26,West,270,0.0,0.0,40,0.00,,---,0.00,VWS V14.01,2013-03-27 22:05:00,
2013-03-27 17:07:00,41.5,17.2,30.25,WNW,297,0.0,4.0,37,0.00,,CLR,0.00,VWS V14.01,2013-03-27 22:07:00,
2013-03-27 17:10:00,40.5,18.1,30.26,West,270,1.0,6.0,40,0.00,,---,0.00,VWS V14.01,2013-03-27 22:10:00,
2013-03-27 17:12:00,41.5,17.8,30.25,WNW,297,0.0,7.0,38,0.00,,CLR,0.00,VWS V14.01,2013-03-27 22:12:00,
2013-03-27 17:15:00,40.5,18.1,30.26,WNW,292,1.0,5.0,40,0.00,,---,0.00,VWS V14.01,2013-03-27 22:15:00,
2013-03-27 17:17:00,41.3,17.6,30.26,NNW,331,0.0,5.0,38,0.00,,CLR,0.00,VWS V14.01,2013-03-27 22:17:00,
2013-03-27 17:20:00,40.3,18.5,30.26,NW,315,0.0,2.0,41,0.00,,---,0.00,VWS V14.01,2013-03-27 22:20:00,
2013-03-27 17:25:00,40.2,18.4,30.26,WNW,292,1.0,5.0,41,0.00,,---,0.00,VWS V14.01,2013-03-27 22:25:00,
2013-03-27 17:27:00,41.1,17.4,30.26,North,360,0.0,5.0,38,0.00,,CLR,0.00,VWS V14.01,2013-03-27 22:27:00,
2013-03-27 17:30:00,40.1,17.1,30.26,West,270,1.0,5.0,39,0.00,,---,0.00,VWS V14.01,2013-03-27 22:30:00,
2013-03-27 17:32:00,40.9,17.9,30.26,NW,321,0.0,3.0,39,0.00,,CLR,0.00,VWS V14.01,2013-03-27 22:32:00,
2013-03-27 17:35:00,39.9,18.1,30.26,WNW,292,0.0,5.0,41,0.00,,---,0.00,VWS V14.01,2013-03-27 22:35:00,
2013-03-27 17:40:00,39.9,18.1,30.26,WNW,292,0.0,0.0,41,0.00,,---,0.00,VWS V14.01,2013-03-27 22:40:00,
2013-03-27 17:42:00,41.1,18.6,30.26,NW,308,4.0,7.0,40,0.00,,CLR,0.00,VWS V14.01,2013-03-27 22:42:00,
2013-03-27 17:45:00,39.8,18.0,30.26,WNW,292,0.0,0.0,41,0.00,,---,0.00,VWS V14.01,2013-03-27 22:45:00,
2013-03-27 17:47:00,40.9,17.9,30.26,WNW,286,3.0,9.0,39,0.00,,CLR,0.00,VWS V14.01,2013-03-27 22:47:00,
2013-03-27 17:50:00,39.6,17.9,30.26,NW,315,0.0,3.0,41,0.00,,---,0.00,VWS V14.01,2013-03-27 22:50:00,
2013-03-27 17:55:00,39.5,17.8,30.26,WNW,292,0.0,4.0,41,0.00,,---,0.00,VWS V14.01,2013-03-27 22:55:00,
2013-03-27 17:57:00,40.8,18.4,30.26,West,277,3.0,6.0,40,0.00,,CLR,0.00,VWS V14.01,2013-03-27 22:57:00,
2013-03-27 18:00:00,39.3,18.7,30.26,WNW,292,0.0,0.0,43,0.00,,---,0.00,VWS V14.01,2013-03-27 23:00:00,
2013-03-27 18:02:00,40.8,17.2,30.26,West,277,0.0,3.0,38,0.00,,FEW100,0.00,VWS V14.01,2013-03-27 23:02:00,
2013-03-27 18:05:00,39.1,18.5,30.26,WNW,292,1.0,4.0,43,0.00,,---,0.00,VWS V14.01,2013-03-27 23:05:00,
2013-03-27 18:07:00,40.6,18.2,30.26,NW,311,0.0,0.0,40,0.00,,FEW100,0.00,VWS V14.01,2013-03-27 23:07:00,
2013-03-27 18:10:00,38.9,18.3,30.26,WNW,292,0.0,3.0,43,0.00,,---,0.00,VWS V14.01,2013-03-27 23:10:00,
2013-03-27 18:12:00,40.5,18.1,30.26,West,277,0.0,6.0,40,0.00,,FEW100,0.00,VWS V14.01,2013-03-27 23:12:00,
2013-03-27 18:15:00,38.6,19.1,30.26,NW,315,1.0,5.0,45,0.00,,---,0.00,VWS V14.01,2013-03-27 23:15:00,
2013-03-27 18:17:00,40.5,18.1,30.26,NW,305,0.0,5.0,40,0.00,,FEW100,0.00,VWS V14.01,2013-03-27 23:17:00,
2013-03-27 18:20:00,38.3,19.4,30.26,NW,315,0.0,0.0,46,0.00,,---,0.00,VWS V14.01,2013-03-27 23:20:00,
2013-03-27 18:22:00,40.3,18.5,30.26,NW,322,0.0,2.0,41,0.00,,FEW100,0.00,VWS V14.01,2013-03-27 23:22:00,
2013-03-27 18:25:00,38.0,19.6,30.26,NW,315,0.0,0.0,47,0.00,,---,0.00,VWS V14.01,2013-03-27 23:25:00,
2013-03-27 18:30:00,37.8,19.4,30.26,NW,315,0.0,0.0,47,0.00,,---,0.00,VWS V14.01,2013-03-27 23:30:00,
2013-03-27 18:32:00,40.1,17.1,30.26,WNW,292,0.0,5.0,39,0.00,,FEW100,0.00,VWS V14.01,2013-03-27 23:32:00,
2013-03-27 18:35:00,37.5,19.6,30.26,NW,315,0.0,0.0,48,0.00,,---,0.00,VWS V14.01,2013-03-27 23:35:00,
2013-03-27 18:37:00,39.9,18.1,30.26,WNW,291,0.0,5.0,41,0.00,,FEW100,0.00,VWS V14.01,2013-03-27 23:37:00,
2013-03-27 18:40:00,37.0,19.6,30.26,NW,315,0.0,0.0,49,0.00,,---,0.00,VWS V14.01,2013-03-27 23:40:00,
2013-03-27 18:42:00,39.9,18.1,30.26,WNW,291,0.0,0.0,41,0.00,,FEW100,0.00,VWS V14.01,2013-03-27 23:42:00,
2013-03-27 18:45:00,36.8,19.5,30.26,NW,315,0.0,0.0,49,0.00,,---,0.00,VWS V14.01,2013-03-27 23:45:00,
2013-03-27 18:47:00,39.8,18.0,30.26,WNW,291,0.0,0.0,41,0.00,,FEW100,0.00,VWS V14.01,2013-03-27 23:47:00,
2013-03-27 18:50:00,36.5,19.6,30.26,NW,315,0.0,0.0,50,0.00,,---,0.00,VWS V14.01,2013-03-27 23:50:00,
2013-03-27 18:52:00,39.6,17.9,30.26,WNW,300,0.0,3.0,41,0.00,,FEW100,0.00,VWS V14.01,2013-03-27 23:52:00,
2013-03-27 18:55:00,36.2,19.4,30.26,NW,315,0.0,3.0,50,0.00,,---,0.00,VWS V14.01,2013-03-27 23:55:00,
2013-03-27 18:57:00,39.5,17.8,30.26,NW,323,0.0,4.0,41,0.00,,FEW100,0.00,VWS V14.01,2013-03-27 23:57:00,
2013-03-27 19:00:00,35.9,19.1,30.27,WNW,292,1.0,3.0,50,0.00,,---,0.00,VWS V14.01,2013-03-28 00:00:00,
2013-03-27 19:02:00,39.3,18.7,30.26,WNW,301,0.0,0.0,43,0.00,,CLR,0.00,VWS V14.01,2013-03-28 00:02:00,
2013-03-27 19:05:00,35.6,18.8,30.27,WNW,292,0.0,2.0,50,0.00,,---,0.00,VWS V14.01,2013-03-28 00:05:00,
2013-03-27 19:07:00,39.1,18.5,30.26,NW,315,0.0,4.0,43,0.00,,CLR,0.00,VWS V14.01,2013-03-28 00:07:00,
2013-03-27 19:10:00,35.5,19.2,30.27,WNW,292,0.0,0.0,51,0.00,,---,0.00,VWS V14.01,2013-03-28 00:10:00,
2013-03-27 19:12:00,38.9,18.3,30.26,NW,319,0.0,3.0,43,0.00,,CLR,0.00,VWS V14.01,2013-03-28 00:12:00,
2013-03-27 19:15:00,35.2,18.9,30.27,WNW,292,0.0,0.0,51,0.00,,---,0.00,VWS V14.01,2013-03-28 00:15:00,
2013-03-27 19:17:00,38.6,19.1,30.26,NW,311,0.0,5.0,45,0.00,,CLR,0.00,VWS V14.01,2013-03-28 00:17:00,
2013-03-27 19:20:00,34.9,19.1,30.27,WNW,292,0.0,0.0,52,0.00,,---,0.00,VWS V14.01,2013-03-28 00:20:00,
2013-03-27 19:22:00,38.3,19.4,30.26,NW,312,0.0,0.0,46,0.00,,CLR,0.00,VWS V14.01,2013-03-28 00:22:00,
2013-03-27 19:25:00,34.6,18.8,30.27,WNW,292,0.0,0.0,52,0.00,,---,0.00,VWS V14.01,2013-03-28 00:25:00,
2013-03-27 19:27:00,38.0,19.6,30.26,NW,316,0.0,0.0,47,0.00,,CLR,0.00,VWS V14.01,2013-03-28 00:27:00,
2013-03-27 19:30:00,34.4,18.6,30.27,WNW,292,0.0,0.0,52,0.00,,---,0.00,VWS V14.01,2013-03-28 00:30:00,
2013-03-27 19:32:00,37.8,19.4,30.26,NW,316,0.0,0.0,47,0.00,,CLR,0.00,VWS V14.01,2013-03-28 00:32:00,
2013-03-27 19:35:00,34.1,18.8,30.27,WNW,292,0.0,0.0,53,0.00,,---,0.00,VWS V14.01,2013-03-28 00:35:00,
2013-03-27 19:37:00,37.5,19.6,30.26,NW,316,0.0,0.0,48,0.00,,CLR,0.00,VWS V14.01,2013-03-28 00:37:00,
2013-03-27 19:40:00,33.8,18.9,30.27,WNW,292,0.0,0.0,54,0.00,,---,0.00,VWS V14.01,2013-03-28 00:40:00,
2013-03-27 19:42:00,37.0,19.6,30.26,NW,316,0.0,0.0,49,0.00,,CLR,0.00,VWS V14.01,2013-03-28 00:42:00,
2013-03-27 19:45:00,33.5,18.2,30.27,WNW,292,0.0,0.0,53,0.00,,---,0.00,VWS V14.01,2013-03-28 00:45:00,
2013-03-27 19:47:00,36.8,19.5,30.26,NW,316,0.0,0.0,49,0.00,,CLR,0.00,VWS V14.01,2013-03-28 00:47:00,
2013-03-27 19:50:00,33.2,18.4,30.27,WNW,292,0.0,0.0,54,0.00,,---,0.00,VWS V14.01,2013-03-28 00:50:00,
2013-03-27 19:52:00,36.5,19.6,30.26,NW,316,0.0,0.0,50,0.00,,CLR,0.00,VWS V14.01,2013-03-28 00:52:00,
2013-03-27 19:55:00,32.8,18.4,30.27,WNW,292,0.0,0.0,55,0.00,,---,0.00,VWS V14.01,2013-03-28 00:55:00,
2013-03-27 19:57:00,36.2,19.4,30.26,WNW,301,0.0,3.0,50,0.00,,CLR,0.00,VWS V14.01,2013-03-28 00:57:00,
2013-03-27 20:00:00,32.5,18.6,30.28,WNW,292,0.0,0.0,56,0.00,,---,0.00,VWS V14.01,2013-03-28 01:00:00,
2013-03-27 20:02:00,35.9,19.1,30.27,WNW,301,0.0,3.0,50,0.00,,CLR,0.00,VWS V14.01,2013-03-28 01:02:00,
2013-03-27 20:05:00,32.2,18.7,30.28,WNW,292,0.0,0.0,57,0.00,,---,0.00,VWS V14.01,2013-03-28 01:05:00,
2013-03-27 20:07:00,35.6,18.8,30.27,WNW,301,0.0,2.0,50,0.00,,CLR,0.00,VWS V14.01,2013-03-28 01:07:00,
2013-03-27 20:10:00,31.8,18.3,30.28,WNW,292,0.0,0.0,57,0.00,,---,0.00,VWS V14.01,2013-03-28 01:10:00,
2013-03-27 20:12:00,35.5,19.2,30.27,WNW,301,0.0,0.0,51,0.00,,CLR,0.00,VWS V14.01,2013-03-28 01:12:00,
2013-03-27 20:15:00,31.5,18.4,30.28,WNW,292,0.0,0.0,58,0.00,,---,0.00,VWS V14.01,2013-03-28 01:15:00,
2013-03-27 20:17:00,35.2,18.9,30.27,WNW,301,0.0,0.0,51,0.00,,CLR,0.00,VWS V14.01,2013-03-28 01:17:00,
2013-03-27 20:20:00,31.2,18.5,30.28,WNW,292,0.0,0.0,59,0.00,,---,0.00,VWS V14.01,2013-03-28 01:20:00,
2013-03-27 20:25:00,30.9,19.0,30.28,WNW,292,0.0,0.0,61,0.00,,---,0.00,VWS V14.01,2013-03-28 01:25:00,
2013-03-27 20:27:00,34.6,18.8,30.27,WNW,301,0.0,0.0,52,0.00,,CLR,0.00,VWS V14.01,2013-03-28 01:27:00,
2013-03-27 20:30:00,30.6,18.8,30.28,WNW,292,0.0,0.0,61,0.00,,---,0.00,VWS V14.01,2013-03-28 01:30:00,
2013-03-27 20:35:00,30.3,19.2,30.28,WNW,292,0.0,0.0,63,0.00,,---,0.00,VWS V14.01,2013-03-28 01:35:00,
2013-03-27 20:37:00,34.1,18.8,30.27,WNW,301,0.0,0.0,53,0.00,,CLR,0.00,VWS V14.01,2013-03-28 01:37:00,
2013-03-27 20:40:00,30.0,19.0,30.28,WNW,292,0.0,0.0,63,0.00,,---,0.00,VWS V14.01,2013-03-28 01:40:00,
2013-03-27 20:42:00,33.8,18.9,30.27,WNW,301,0.0,0.0,54,0.00,,CLR,0.00,VWS V14.01,2013-03-28 01:42:00,
2013-03-27 20:45:00,29.8,19.1,30.29,WNW,292,0.0,0.0,64,0.00,,---,0.00,VWS V14.01,2013-03-28 01:45:00,
2013-03-27 20:47:00,33.5,18.2,30.27,WNW,301,0.0,0.0,53,0.00,,CLR,0.00,VWS V14.01,2013-03-28 01:47:00,
2013-03-27 20:50:00,29.5,19.2,30.29,WNW,292,0.0,0.0,65,0.00,,---,0.00,VWS V14.01,2013-03-28 01:50:00,
2013-03-27 20:52:00,33.2,18.4,30.27,WNW,301,0.0,0.0,54,0.00,,CLR,0.00,VWS V14.01,2013-03-28 01:52:00,
2013-03-27 20:55:00,29.3,19.0,30.29,WNW,292,0.0,0.0,65,0.00,,---,0.00,VWS V14.01,2013-03-28 01:55:00,
2013-03-27 21:00:00,29.1,18.8,30.29,WNW,292,0.0,0.0,65,0.00,,---,0.00,VWS V14.01,2013-03-28 02:00:00,
2013-03-27 21:02:00,32.5,18.6,30.28,WNW,301,0.0,0.0,56,0.00,,CLR,0.00,VWS V14.01,2013-03-28 02:02:00,
2013-03-27 21:05:00,29.0,19.1,30.29,WNW,292,0.0,0.0,66,0.00,,---,0.00,VWS V14.01,2013-03-28 02:05:00,
2013-03-27 21:07:00,32.2,18.7,30.28,WNW,301,0.0,0.0,57,0.00,,CLR,0.00,VWS V14.01,2013-03-28 02:07:00,
2013-03-27 21:10:00,28.8,18.9,30.29,WNW,292,0.0,0.0,66,0.00,,---,0.00,VWS V14.01,2013-03-28 02:10:00,
2013-03-27 21:12:00,31.8,18.3,30.28,WNW,301,0.0,0.0,57,0.00,,CLR,0.00,VWS V14.01,2013-03-28 02:12:00,
2013-03-27 21:15:00,28.7,18.8,30.29,WNW,292,0.0,0.0,66,0.00,,---,0.00,VWS V14.01,2013-03-28 02:15:00,
2013-03-27 21:17:00,31.5,18.4,30.28,WNW,301,0.0,0.0,58,0.00,,CLR,0.00,VWS V14.01,2013-03-28 02:17:00,
2013-03-27 21:20:00,28.5,19.0,30.29,WNW,292,0.0,0.0,67,0.00,,---,0.00,VWS V14.01,2013-03-28 02:20:00,
2013-03-27 21:22:00,31.2,18.5,30.28,WNW,301,0.0,0.0,59,0.00,,CLR,0.00,VWS V14.01,2013-03-28 02:22:00,
2013-03-27 21:25:00,28.5,19.3,30.29,WNW,292,0.0,0.0,68,0.00,,---,0.00,VWS V14.01,2013-03-28 02:25:00,
2013-03-27 21:28:00,30.9,19.0,30.28,WNW,301,0.0,0.0,61,0.00,,CLR,0.00,VWS V14.01,2013-03-28 02:28:00,
2013-03-27 21:30:00,28.4,19.2,30.29,WNW,292,0.0,0.0,68,0.00,,---,0.00,VWS V14.01,2013-03-28 02:30:00,
2013-03-27 21:35:00,28.1,18.9,30.29,WNW,292,0.0,0.0,68,0.00,,---,0.00,VWS V14.01,2013-03-28 02:35:00,
2013-03-27 21:37:00,30.3,19.2,30.28,WNW,301,0.0,0.0,63,0.00,,CLR,0.00,VWS V14.01,2013-03-28 02:37:00,
2013-03-27 21:40:00,27.8,19.0,30.29,WNW,292,0.0,0.0,69,0.00,,---,0.00,VWS V14.01,2013-03-28 02:40:00,
2013-03-27 21:42:00,30.0,19.0,30.28,WNW,301,0.0,0.0,63,0.00,,CLR,0.00,VWS V14.01,2013-03-28 02:42:00,
2013-03-27 21:45:00,27.8,19.0,30.29,WNW,292,0.0,0.0,69,0.00,,---,0.00,VWS V14.01,2013-03-28 02:45:00,
2013-03-27 21:47:00,29.8,19.1,30.29,WNW,301,0.0,0.0,64,0.00,,CLR,0.00,VWS V14.01,2013-03-28 02:47:00,
2013-03-27 21:50:00,27.6,18.8,30.29,WNW,292,0.0,0.0,69,0.00,,---,0.00,VWS V14.01,2013-03-28 02:50:00,
2013-03-27 21:52:00,29.5,19.2,30.29,WNW,301,0.0,0.0,65,0.00,,CLR,0.00,VWS V14.01,2013-03-28 02:52:00,
2013-03-27 21:55:00,27.6,18.8,30.29,WNW,292,0.0,0.0,69,0.00,,---,0.00,VWS V14.01,2013-03-28 02:55:00,
2013-03-27 21:57:00,29.3,19.0,30.29,WNW,301,0.0,0.0,65,0.00,,CLR,0.00,VWS V14.01,2013-03-28 02:57:00,
2013-03-27 22:00:00,27.5,18.7,30.29,WNW,301,0.0,0.0,69,0.00,,CLR,0.00,VWS V14.01,2013-03-28 03:00:00,
2013-03-27 22:02:00,29.1,18.8,30.29,WNW,301,0.0,0.0,65,0.00,,CLR,0.00,VWS V14.01,2013-03-28 03:02:00,
2013-03-27 22:05:00,27.3,18.5,30.29,WNW,301,0.0,0.0,69,0.00,,CLR,0.00,VWS V14.01,2013-03-28 03:05:00,
2013-03-27 22:07:00,29.0,19.1,30.29,WNW,301,0.0,0.0,66,0.00,,CLR,0.00,VWS V14.01,2013-03-28 03:07:00,
2013-03-27 22:10:00,27.3,18.5,30.29,WNW,301,0.0,0.0,69,0.00,,CLR,0.00,VWS V14.01,2013-03-28 03:10:00,
2013-03-27 22:12:00,28.8,18.9,30.29,WNW,301,0.0,0.0,66,0.00,,CLR,0.00,VWS V14.01,2013-03-28 03:12:00,
2013-03-27 22:15:00,27.2,18.4,30.29,WNW,301,0.0,0.0,69,0.00,,CLR,0.00,VWS V14.01,2013-03-28 03:15:00,
2013-03-27 22:20:00,27.0,18.5,30.29,WNW,301,0.0,0.0,70,0.00,,CLR,0.00,VWS V14.01,2013-03-28 03:20:00,
2013-03-27 22:22:00,28.5,19.0,30.29,WNW,301,0.0,0.0,67,0.00,,CLR,0.00,VWS V14.01,2013-03-28 03:22:00,
2013-03-27 22:25:00,26.9,18.4,30.29,WNW,301,0.0,0.0,70,0.00,,CLR,0.00,VWS V14.01,2013-03-28 03:25:00,
2013-03-27 22:27:00,28.5,19.3,30.29,WNW,301,0.0,0.0,68,0.00,,CLR,0.00,VWS V14.01,2013-03-28 03:27:00,
2013-03-27 22:30:00,26.7,18.2,30.29,WNW,301,0.0,0.0,70,0.00,,CLR,0.00,VWS V14.01,2013-03-28 03:30:00,
2013-03-27 22:32:00,28.4,19.2,30.29,WNW,301,0.0,0.0,68,0.00,,CLR,0.00,VWS V14.01,2013-03-28 03:32:00,
2013-03-27 22:35:00,26.6,18.5,30.29,WNW,301,0.0,0.0,71,0.00,,CLR,0.00,VWS V14.01,2013-03-28 03:35:00,
2013-03-27 22:37:00,28.1,18.9,30.29,WNW,301,0.0,0.0,68,0.00,,CLR,0.00,VWS V14.01,2013-03-28 03:37:00,
2013-03-27 22:40:00,26.4,18.3,30.29,WNW,301,0.0,0.0,71,0.00,,CLR,0.00,VWS V14.01,2013-03-28 03:40:00,
2013-03-27 22:42:00,27.8,19.0,30.29,WNW,301,0.0,0.0,69,0.00,,CLR,0.00,VWS V14.01,2013-03-28 03:42:00,
2013-03-27 22:45:00,26.4,18.3,30.29,WNW,301,0.0,0.0,71,0.00,,CLR,0.00,VWS V14.01,2013-03-28 03:45:00,
2013-03-27 22:47:00,27.8,19.0,30.29,WNW,301,0.0,0.0,69,0.00,,CLR,0.00,VWS V14.01,2013-03-28 03:47:00,
2013-03-27 22:50:00,26.3,18.8,30.29,WNW,301,0.0,0.0,73,0.00,,CLR,0.00,VWS V14.01,2013-03-28 03:50:00,
2013-03-27 22:52:00,27.6,18.8,30.29,WNW,301,0.0,0.0,69,0.00,,CLR,0.00,VWS V14.01,2013-03-28 03:52:00,
2013-03-27 22:55:00,26.1,18.6,30.29,WNW,301,0.0,0.0,73,0.00,,CLR,0.00,VWS V14.01,2013-03-28 03:55:00,
2013-03-27 22:57:00,27.6,18.8,30.29,WNW,301,0.0,0.0,69,0.00,,CLR,0.00,VWS V14.01,2013-03-28 03:57:00,
2013-03-27 23:00:00,26.0,18.5,30.29,WNW,301,0.0,0.0,73,0.00,,CLR,0.00,VWS V14.01,2013-03-28 04:00:00,
2013-03-27 23:05:00,25.8,18.7,30.29,WNW,301,0.0,0.0,74,0.00,,CLR,0.00,VWS V14.01,2013-03-28 04:05:00,
2013-03-27 23:10:00,25.7,18.6,30.29,WNW,301,0.0,0.0,74,0.00,,CLR,0.00,VWS V14.01,2013-03-28 04:10:00,
2013-03-27 23:15:00,25.7,18.6,30.29,WNW,301,0.0,0.0,74,0.00,,CLR,0.00,VWS V14.01,2013-03-28 04:15:00,
2013-03-27 23:20:00,25.7,18.6,30.29,WNW,301,0.0,0.0,74,0.00,,CLR,0.00,VWS V14.01,2013-03-28 04:20:00,
2013-03-27 23:25:00,25.6,18.5,30.29,WNW,301,0.0,0.0,74,0.00,,CLR,0.00,VWS V14.01,2013-03-28 04:25:00,
2013-03-27 23:30:00,25.6,18.5,30.29,WNW,301,0.0,0.0,74,0.00,,CLR,0.00,VWS V14.01,2013-03-28 04:30:00,
2013-03-27 23:35:00,25.4,18.3,30.29,WNW,301,0.0,0.0,74,0.00,,CLR,0.00,VWS V14.01,2013-03-28 04:35:00,
2013-03-27 23:40:00,25.3,18.2,30.29,WNW,301,0.0,0.0,74,0.00,,CLR,0.00,VWS V14.01,2013-03-28 04:40:00,
2013-03-27 23:45:00,25.1,18.0,30.29,WNW,301,0.0,0.0,74,0.00,,CLR,0.00,VWS V14.01,2013-03-28 04:45:00,
2013-03-27 23:50:00,25.0,17.9,30.29,WNW,301,0.0,0.0,74,0.00,,CLR,0.00,VWS V14.01,2013-03-28 04:50:00,
2013-03-27 23:55:00,24.8,17.7,30.29,WNW,301,0.0,0.0,74,0.00,,CLR,0.00,VWS V14.01,2013-03-28 04:55:00,